Redwood City, CA (94061)

10:53 AM PST on February 13, 2016 (GMT -0800)
Skywood | | Change Station
CLOSE
Current Station
Personal Weather Station
Location: Woodside, CA
Elevation: 1453 ft
Nearby Weather Stations

Elev 1453 ft 37.39 °N, 122.26 °W | Updated 9 seconds ago

Mostly Cloudy
Mostly Cloudy
57.9 °F
Feels Like 57.9 °F
N
2.3
Wind Variable Wind from East
Gusts 0.0 mph

Today
High -- | Low -- °F
--% Chance of Precip.
Yesterday
High -- | Low -- °F
Precip. -- in
Pressure 30.31 in
Visibility 3.0 miles
Clouds Overcast 500 ft
Dew Point 48 °F
Humidity 69%
Rainfall 0.00 in
Snow Depth Not available.
7:00 AM 5:46 PM
Waxing Crescent, 33% visible
SPECI KSQL 131818Z 31006KT 3SM BR OVC005 13/13 A3031
Pressure 30.31 in
Visibility 3.0 miles
Clouds Overcast 500 ft
Dew Point 48 °F
Humidity 69%
Rainfall 0.00 in
Snow Depth Not available.
7:00 AM 5:46 PM
Waxing Crescent, 33% visible
SPECI KSQL 131818Z 31006KT 3SM BR OVC005 13/13 A3031

10-Day Weather Forecast

Almanac

Astronomy

Feb. 13, 2016 Rise Set
Actual Time
Civil Twilight
Nautical Twilight
Astronomical Twilight
Moon
Length of Visible Light
Length of Day
Tomorrow will be .
, % of the Moon is Illuminated

Today's Extremes

State Highs State Lows

Community

WunderPhotos

Upload Photos

1,892,633 photos uploaded!

WunderBlog® & News

Nearby

Air Quality

  Air Quality AQ Index Pollutant
Not available.

Snow Depth

Station Depth Elevation

Earthquake Activity

City Distance Mag. Time & Date
Minimum magnitude displayed is 2.5.

Coastal Water Temperatures

Place Temperature

Stations

Nearby Weather Stations

Station Location Temp. Windchill Dew Point Humidity Wind Precip. Elev Updated Type
                   

Watches & Warnings

There are currently no watches in effect.